BBC Switzerland — DGFL2 — position and weather

sailwx.info

Track history (hours):
 
Tides and Currents Weather Stations Pressure Air Temp Water Temp Dewpoint Dewpoint Depression Visibility Wind Speed Wind Dir Waves Ship Positions

BBC Switzerland

Last reported at 2016-Feb-08 19:16 UTC. Time now 2016-Feb-12 09:53 UTC.
Position S 23°45' W 042°23'.

Length 119 m; draft 6.7 m.

Type: Cargo ship. MMSI: 218629000.

Date/timePositionNaut miles runAvg speedWind from/ knotsBaromVisibWave heightAir tempDewpointWater temp
2016-Feb-08 19:16S 23°45' W 042°23'  
2016-Feb-05 01:25S 35°10' W 056°44'8 8.6
2016-Feb-05 00:32S 35°10' W 056°53'1111.6
2016-Feb-04 23:33S 35°06' W 057°06'1312.5
2016-Feb-04 22:31S 34°56' W 057°17'55 2.8
2016-Feb-04 02:31S 34°39' W 058°20'7 0.2
2016-Feb-02 12:17S 34°37' W 058°13'911.9
2016-Feb-02 11:34S 34°39' W 058°03'1211.5
2016-Feb-02 10:31S 34°45' W 057°50'2 0.8
2016-Feb-02 08:29S 34°46' W 057°49'  
2016-Jan-31 00:17S 27°10' W 046°45'1217.1
2016-Jan-30 23:33S 27°01' W 046°36'1717.1
2016-Jan-30 22:33S 26°47' W 046°24'1717.2
2016-Jan-30 21:33S 26°33' W 046°13'1717.1
2016-Jan-30 20:33S 26°20' W 046°01'1716.9
2016-Jan-30 19:33S 26°07' W 045°49'1716.9
2016-Jan-30 18:33S 25°54' W 045°37'1616.3
2016-Jan-30 17:33S 25°41' W 045°26'1615.9
2016-Jan-30 16:33S 25°28' W 045°16'  
Track history (hours):
 
Tides and Currents Weather Stations Pressure Air Temp Water Temp Dewpoint Dewpoint Depression Visibility Wind Speed Wind Dir Waves Ship Positions

BBC Switzerland

Last reported at 2016-Feb-08 19:16 UTC. Time now 2016-Feb-12 09:53 UTC.
Position S 23°45' W 042°23'.

Length 119 m; draft 6.7 m.

Type: Cargo ship. MMSI: 218629000.

Date/timePositionNaut miles runAvg speedWind from/ knotsBaromVisibWave heightAir tempDewpointWater temp
2016-Feb-08 19:16S 23°45' W 042°23'  
2016-Feb-05 01:25S 35°10' W 056°44'8 8.6
2016-Feb-05 00:32S 35°10' W 056°53'1111.6
2016-Feb-04 23:33S 35°06' W 057°06'1312.5
2016-Feb-04 22:31S 34°56' W 057°17'55 2.8
2016-Feb-04 02:31S 34°39' W 058°20'7 0.2
2016-Feb-02 12:17S 34°37' W 058°13'911.9
2016-Feb-02 11:34S 34°39' W 058°03'1211.5
2016-Feb-02 10:31S 34°45' W 057°50'2 0.8
2016-Feb-02 08:29S 34°46' W 057°49'  
2016-Jan-31 00:17S 27°10' W 046°45'1217.1
2016-Jan-30 23:33S 27°01' W 046°36'1717.1
2016-Jan-30 22:33S 26°47' W 046°24'1717.2
2016-Jan-30 21:33S 26°33' W 046°13'1717.1
2016-Jan-30 20:33S 26°20' W 046°01'1716.9
2016-Jan-30 19:33S 26°07' W 045°49'1716.9
2016-Jan-30 18:33S 25°54' W 045°37'1616.3
2016-Jan-30 17:33S 25°41' W 045°26'1615.9
2016-Jan-30 16:33S 25°28' W 045°16'  

Dump ship's entire track history